createdAt,value
2023-02-01T00:01:17.674Z,19.08
2023-02-01T00:04:19.257Z,18.73
2023-02-01T00:07:20.784Z,23.90
2023-02-01T00:10:22.585Z,15.27
2023-02-01T00:13:24.210Z,22.63
2023-02-01T00:16:28.599Z,21.88
2023-02-01T00:19:30.051Z,20.60
2023-02-01T00:22:31.497Z,18.20
2023-02-01T00:25:32.964Z,29.98
2023-02-01T00:28:34.728Z,20.27
2023-02-01T00:31:36.258Z,24.85
2023-02-01T00:34:38.208Z,27.33
2023-02-01T00:37:39.751Z,27.63
2023-02-01T00:40:41.220Z,21.48
2023-02-01T00:43:43.670Z,27.63
2023-02-01T00:46:45.296Z,28.23
2023-02-01T00:49:46.743Z,23.52
2023-02-01T00:52:48.224Z,21.48
2023-02-01T00:55:49.684Z,29.90
2023-02-01T00:58:51.310Z,21.27
2023-02-01T01:01:52.890Z,25.17
2023-02-01T01:04:54.389Z,21.88
2023-02-01T01:07:56.524Z,24.90
2023-02-01T01:10:58.316Z,28.05
2023-02-01T01:14:00.073Z,21.90
2023-02-01T01:17:01.566Z,20.10
2023-02-01T01:20:04.714Z,26.92
2023-02-01T01:23:07.111Z,21.83
2023-02-01T01:26:10.841Z,25.20
2023-02-01T01:29:12.322Z,24.92
2023-02-01T01:32:13.754Z,19.70
2023-02-01T01:35:15.309Z,30.13
2023-02-01T01:38:16.851Z,28.42
2023-02-01T01:41:21.703Z,27.65
2023-02-01T01:44:59.563Z,22.88
2023-02-01T01:48:08.108Z,17.52
2023-02-01T01:51:13.252Z,21.85
2023-02-01T01:54:21.500Z,24.23
2023-02-01T01:57:33.107Z,24.00
2023-02-01T02:00:35.744Z,27.58
2023-02-01T02:03:44.151Z,29.92
2023-02-01T02:06:55.560Z,26.35
2023-02-01T02:10:00.807Z,24.10
2023-02-01T02:13:03.264Z,24.17
2023-02-01T02:16:28.420Z,21.52
2023-02-01T02:20:08.776Z,25.02
2023-02-01T02:23:48.668Z,39.15
2023-02-01T02:27:14.760Z,25.30
2023-02-01T02:30:59.130Z,23.98
2023-02-01T02:34:16.758Z,28.35
2023-02-01T02:37:39.642Z,24.80
2023-02-01T02:41:00.977Z,36.85
2023-02-01T02:44:22.181Z,22.95
2023-02-01T02:47:43.259Z,26.10
2023-02-01T02:51:02.176Z,26.65
2023-02-01T02:54:13.700Z,33.55
2023-02-01T02:57:20.285Z,26.23
2023-02-01T03:00:34.721Z,33.13
2023-02-01T03:03:39.922Z,19.35
2023-02-01T03:06:42.024Z,18.10
2023-02-01T03:09:47.060Z,23.27
2023-02-01T03:12:49.088Z,18.83
2023-02-01T03:15:53.476Z,16.40
2023-02-01T03:19:15.372Z,14.38
2023-02-01T03:22:24.177Z,15.60
2023-02-01T03:25:33.538Z,14.77
2023-02-01T03:28:38.347Z,15.25
2023-02-01T03:31:41.250Z,14.98
2023-02-01T03:34:43.937Z,18.83
2023-02-01T03:37:45.699Z,18.05
2023-02-01T03:40:53.376Z,20.33
2023-02-01T03:44:09.621Z,17.58
2023-02-01T03:47:28.917Z,23.17
2023-02-01T03:50:34.241Z,21.45
2023-02-01T03:53:37.804Z,12.93
2023-02-01T03:56:45.322Z,11.68
2023-02-01T03:59:46.948Z,17.33
2023-02-01T04:02:48.999Z,19.23
2023-02-01T04:05:51.658Z,15.85
2023-02-01T04:08:53.714Z,13.75
2023-02-01T04:11:55.192Z,16.77
2023-02-01T04:14:56.656Z,13.57
2023-02-01T04:17:58.143Z,17.17
2023-02-01T04:20:59.626Z,10.93
2023-02-01T04:24:01.107Z,12.23
2023-02-01T04:27:02.699Z,10.32
2023-02-01T04:30:05.537Z,12.50
2023-02-01T04:33:06.979Z,15.73
2023-02-01T04:36:08.591Z,9.73
2023-02-01T04:39:10.806Z,10.63
2023-02-01T04:42:12.421Z,9.02
2023-02-01T04:45:13.937Z,6.43
2023-02-01T04:48:16.327Z,9.15
2023-02-01T04:51:17.789Z,10.13
2023-02-01T04:54:19.222Z,3.47
2023-02-01T04:57:20.976Z,4.18
2023-02-01T05:00:22.928Z,2.90
2023-02-01T05:03:24.663Z,1.70
2023-02-01T05:06:26.102Z,2.00
2023-02-01T05:09:27.548Z,3.90
2023-02-01T05:12:29.007Z,2.08
2023-02-01T05:15:31.562Z,1.88
2023-02-01T05:18:33.043Z,2.27
2023-02-01T05:21:34.498Z,0.77
2023-02-01T05:24:35.959Z,1.17
2023-02-01T05:27:37.491Z,2.15
2023-02-01T05:30:41.202Z,1.45
2023-02-01T05:33:43.997Z,2.35
2023-02-01T05:36:45.600Z,2.95
2023-02-01T05:39:47.049Z,3.20
2023-02-01T05:42:48.778Z,2.60
2023-02-01T05:45:50.278Z,3.65
2023-02-01T05:48:51.729Z,4.47
2023-02-01T05:51:53.157Z,3.45
2023-02-01T05:54:54.623Z,4.55
2023-02-01T05:57:56.058Z,6.40
2023-02-01T06:01:00.479Z,4.55
2023-02-01T06:04:01.945Z,5.13
2023-02-01T06:07:03.794Z,7.38
2023-02-01T06:10:05.658Z,5.85
2023-02-01T06:13:07.215Z,8.32
2023-02-01T06:16:08.959Z,8.48
2023-02-01T06:19:10.446Z,9.98
2023-02-01T06:22:11.904Z,8.02
2023-02-01T06:25:13.671Z,6.63
2023-02-01T06:28:15.135Z,10.30
2023-02-01T06:31:16.926Z,9.23
2023-02-01T06:34:21.143Z,14.25
2023-02-01T06:37:24.715Z,12.93
2023-02-01T06:40:26.272Z,11.90
2023-02-01T06:43:28.466Z,16.08
2023-02-01T06:46:30.050Z,15.35
2023-02-01T06:49:31.571Z,12.00
2023-02-01T06:52:33.068Z,16.13
2023-02-01T06:55:34.640Z,17.23
2023-02-01T06:58:36.127Z,16.38
2023-02-01T07:01:37.832Z,23.98
2023-02-01T07:04:39.293Z,18.08
2023-02-01T07:07:40.923Z,20.80
2023-02-01T07:10:42.404Z,30.88
2023-02-01T07:13:44.070Z,21.83
2023-02-01T07:16:45.525Z,21.73
2023-02-01T07:19:46.988Z,29.13
2023-02-01T07:22:48.514Z,21.02
2023-02-01T07:25:54.411Z,25.67
2023-02-01T07:28:55.846Z,18.27
2023-02-01T07:31:57.315Z,27.45
2023-02-01T07:34:59.265Z,26.92
2023-02-01T07:38:00.706Z,28.90
2023-02-01T07:41:04.704Z,22.45
2023-02-01T07:44:06.209Z,25.50
2023-02-01T07:47:07.682Z,24.33
2023-02-01T07:50:09.606Z,15.80
2023-02-01T07:53:11.085Z,21.38
2023-02-01T07:56:15.291Z,21.52
2023-02-01T07:59:16.744Z,28.02
2023-02-01T08:02:18.228Z,24.08
2023-02-01T08:05:19.718Z,27.73
2023-02-01T08:08:21.161Z,27.35
2023-02-01T08:11:23.612Z,24.60
2023-02-01T08:14:25.165Z,26.80
2023-02-01T08:17:26.691Z,19.73
2023-02-01T08:20:28.169Z,25.02
2023-02-01T08:23:29.603Z,20.30
2023-02-01T08:26:31.860Z,27.83
2023-02-01T08:29:33.325Z,23.85
2023-02-01T08:32:35.496Z,24.40
2023-02-01T08:35:43.189Z,18.85
2023-02-01T08:38:45.929Z,23.08
2023-02-01T08:41:47.345Z,19.60
2023-02-01T08:44:48.784Z,17.10
2023-02-01T08:47:51.666Z,20.73
2023-02-01T08:50:53.093Z,20.33
2023-02-01T08:53:54.548Z,20.60
2023-02-01T08:56:56.379Z,17.13
2023-02-01T08:59:57.807Z,20.85
2023-02-01T09:02:59.254Z,19.52
2023-02-01T09:06:02.861Z,20.98
2023-02-01T09:09:04.350Z,19.45
2023-02-01T09:12:06.259Z,14.73
2023-02-01T09:15:08.368Z,21.90
2023-02-01T09:18:09.854Z,16.73
2023-02-01T09:21:11.322Z,16.00
2023-02-01T09:24:13.573Z,17.25
2023-02-01T09:27:15.120Z,18.60
2023-02-01T09:30:16.731Z,15.15
2023-02-01T09:33:18.179Z,18.13
2023-02-01T09:36:19.613Z,20.98
2023-02-01T09:39:21.102Z,20.13
2023-02-01T09:42:25.244Z,21.15
2023-02-01T09:45:35.850Z,24.67
2023-02-01T09:48:41.572Z,22.65
2023-02-01T09:51:49.308Z,24.08
2023-02-01T09:54:56.340Z,18.73
2023-02-01T09:58:06.377Z,16.80
2023-02-01T10:01:22.937Z,22.15
2023-02-01T10:04:24.550Z,17.42
2023-02-01T10:07:46.963Z,15.27
2023-02-01T10:10:50.465Z,18.83
2023-02-01T10:17:18.243Z,19.33
2023-02-01T10:20:23.233Z,18.90
2023-02-01T10:23:49.620Z,21.10
2023-02-01T10:27:02.200Z,16.65
2023-02-01T10:30:24.706Z,14.23
2023-02-01T10:33:40.806Z,21.02
2023-02-01T10:36:50.144Z,14.88
2023-02-01T10:39:55.684Z,22.20
2023-02-01T10:43:02.268Z,13.55
2023-02-01T10:46:03.850Z,16.35
2023-02-01T10:49:10.480Z,19.83
2023-02-01T10:52:20.991Z,18.17
2023-02-01T10:55:34.435Z,17.95
2023-02-01T10:58:43.566Z,17.13
2023-02-01T11:01:47.633Z,18.67
2023-02-01T11:04:49.376Z,17.63
2023-02-01T11:07:54.113Z,24.63
2023-02-01T11:11:01.579Z,14.32
2023-02-01T11:14:16.141Z,17.73
2023-02-01T11:17:36.020Z,27.63
2023-02-01T11:20:41.033Z,14.30
2023-02-01T11:23:46.389Z,12.80
2023-02-01T11:26:47.854Z,13.98
2023-02-01T11:29:56.172Z,20.30
2023-02-01T11:32:57.846Z,18.10
2023-02-01T11:35:59.530Z,15.32
2023-02-01T11:39:36.232Z,7.55
2023-02-01T11:42:54.834Z,8.32
2023-02-01T11:46:02.074Z,18.27
2023-02-01T11:49:25.768Z,9.55
2023-02-01T11:52:50.128Z,17.65
2023-02-01T11:56:23.793Z,17.85
2023-02-01T11:59:51.704Z,16.38
2023-02-01T12:03:09.153Z,13.82
2023-02-01T12:06:22.969Z,9.93
2023-02-01T12:09:40.196Z,9.48
2023-02-01T12:12:52.194Z,7.00
2023-02-01T12:16:08.665Z,3.55
2023-02-01T12:19:29.184Z,4.40
2023-02-01T12:22:52.376Z,5.03
2023-02-01T12:26:28.996Z,2.38
2023-02-01T12:29:42.239Z,5.38
2023-02-01T12:33:00.408Z,5.97
2023-02-01T12:36:19.726Z,3.75
2023-02-01T12:39:31.858Z,3.05
2023-02-01T12:42:40.837Z,4.47
2023-02-01T12:46:07.326Z,1.70
2023-02-01T12:49:11.828Z,4.22
2023-02-01T12:52:22.436Z,1.58
2023-02-01T12:55:37.557Z,2.35
2023-02-01T12:58:54.374Z,2.83
2023-02-01T13:01:57.893Z,2.63
2023-02-01T13:05:06.975Z,0.57
2023-02-01T13:08:17.094Z,1.90
2023-02-01T13:11:45.892Z,1.08
2023-02-01T13:14:53.840Z,2.10
2023-02-01T13:17:59.651Z,1.17
2023-02-01T13:21:06.330Z,1.42
2023-02-01T13:24:36.970Z,1.58
2023-02-01T13:27:39.010Z,1.67
2023-02-01T13:30:59.714Z,1.95
2023-02-01T13:34:39.110Z,3.78
2023-02-01T13:37:57.613Z,5.07
2023-02-01T13:41:28.040Z,6.22
2023-02-01T13:44:39.845Z,3.20
2023-02-01T13:47:44.580Z,6.72
2023-02-01T13:50:52.941Z,11.18
2023-02-01T13:53:54.442Z,4.50
2023-02-01T13:56:57.353Z,5.65
2023-02-01T14:00:08.420Z,3.80
2023-02-01T14:03:43.007Z,8.35
2023-02-01T14:06:45.491Z,4.85
2023-02-01T14:09:47.071Z,5.05
2023-02-01T14:12:50.066Z,7.93
2023-02-01T14:16:03.769Z,9.07
2023-02-01T14:19:09.821Z,8.63
2023-02-01T14:22:23.466Z,7.80
2023-02-01T14:28:30.476Z,7.93
2023-02-01T14:31:41.500Z,10.48
2023-02-01T14:34:48.897Z,10.00
2023-02-01T14:38:01.870Z,9.52
2023-02-01T14:41:24.556Z,6.13
2023-02-01T14:44:29.237Z,13.88
2023-02-01T14:47:32.334Z,5.72
2023-02-01T14:50:38.669Z,6.40
2023-02-01T14:53:40.440Z,11.90
2023-02-01T14:56:42.206Z,7.90
2023-02-01T14:59:46.269Z,8.43
2023-02-01T15:02:50.331Z,6.43
2023-02-01T15:05:59.173Z,10.85
2023-02-01T15:09:14.896Z,7.63
2023-02-01T15:12:17.694Z,5.78
2023-02-01T15:15:22.473Z,8.20
2023-02-01T15:18:24.184Z,6.95
2023-02-01T15:21:29.773Z,7.60
2023-02-01T15:24:32.340Z,9.23
2023-02-01T15:27:34.571Z,11.82
2023-02-01T15:30:36.828Z,9.18
2023-02-01T15:33:38.316Z,11.77
2023-02-01T15:36:42.478Z,9.73
2023-02-01T15:40:11.242Z,10.13
2023-02-01T15:43:13.611Z,16.67
2023-02-01T15:46:21.147Z,13.05
2023-02-01T15:49:28.502Z,8.18
2023-02-01T15:52:42.212Z,14.38
2023-02-01T15:58:52.791Z,17.25
2023-02-01T16:01:54.223Z,15.13
2023-02-01T16:04:55.899Z,23.55
2023-02-01T16:08:05.482Z,15.38
2023-02-01T16:11:10.109Z,22.60
2023-02-01T16:14:11.560Z,16.35
2023-02-01T16:17:13.020Z,17.13
2023-02-01T16:20:14.511Z,22.83
2023-02-01T16:23:16.011Z,25.83
2023-02-01T16:26:17.724Z,27.83
2023-02-01T16:29:19.217Z,20.25
2023-02-01T16:32:22.266Z,27.88
2023-02-01T16:35:29.088Z,28.90
2023-02-01T16:38:30.592Z,17.13
2023-02-01T16:41:32.072Z,32.42
2023-02-01T16:44:33.522Z,26.60
2023-02-01T16:47:38.221Z,23.55
2023-02-01T16:50:39.763Z,21.15
2023-02-01T16:53:53.426Z,32.53
2023-02-01T16:56:55.634Z,22.85
2023-02-01T16:59:57.081Z,30.23
2023-02-01T17:02:58.505Z,20.67
2023-02-01T17:06:00.608Z,26.48
2023-02-01T17:09:02.152Z,21.10
2023-02-01T17:12:05.113Z,14.07
2023-02-01T17:15:06.985Z,15.57
2023-02-01T17:18:15.660Z,19.25
2023-02-01T17:21:17.114Z,13.60
2023-02-01T17:24:22.574Z,20.58
2023-02-01T17:27:24.004Z,14.40
2023-02-01T17:30:25.844Z,17.98
2023-02-01T17:33:35.776Z,17.23
2023-02-01T17:36:38.108Z,16.48
2023-02-01T17:39:39.566Z,14.73
2023-02-01T17:42:41.060Z,19.92
2023-02-01T17:45:50.405Z,15.88
2023-02-01T17:48:51.937Z,20.33
2023-02-01T17:51:53.395Z,15.65
2023-02-01T17:54:54.875Z,17.63
2023-02-01T17:57:56.324Z,16.40
2023-02-01T18:00:57.861Z,21.98
2023-02-01T18:03:59.357Z,18.90
2023-02-01T18:07:00.773Z,20.38
2023-02-01T18:10:02.259Z,18.95
2023-02-01T18:13:03.814Z,18.27
2023-02-01T18:16:05.687Z,25.27
2023-02-01T18:19:07.678Z,25.77
2023-02-01T18:22:22.593Z,19.35
2023-02-01T18:25:29.480Z,20.65
2023-02-01T18:28:30.906Z,22.58
2023-02-01T18:31:33.757Z,22.73
2023-02-01T18:34:35.267Z,18.95
2023-02-01T18:37:36.743Z,18.42
2023-02-01T18:40:58.475Z,31.23
2023-02-01T18:43:59.913Z,17.73
2023-02-01T18:47:01.384Z,25.45
2023-02-01T18:50:02.887Z,25.60
2023-02-01T18:53:13.243Z,21.63
2023-02-01T18:56:16.054Z,18.98
2023-02-01T18:59:17.530Z,18.38
2023-02-01T19:02:19.059Z,18.70
2023-02-01T19:05:20.857Z,15.32
2023-02-01T19:08:22.483Z,18.65
2023-02-01T19:11:24.718Z,13.95
2023-02-01T19:14:26.206Z,16.52
2023-02-01T19:17:30.452Z,23.83
2023-02-01T19:20:32.034Z,32.83
2023-02-01T19:23:33.554Z,26.73
2023-02-01T19:26:35.025Z,21.90
2023-02-01T19:29:37.152Z,18.52
2023-02-01T19:32:38.668Z,21.38
2023-02-01T19:35:40.156Z,21.98
2023-02-01T19:38:41.714Z,16.50
2023-02-01T19:41:43.206Z,17.08
2023-02-01T19:44:44.793Z,10.02
2023-02-01T19:47:46.300Z,9.95
2023-02-01T19:50:47.774Z,23.40
2023-02-01T19:53:49.217Z,19.30
2023-02-01T19:56:50.719Z,15.35
2023-02-01T19:59:52.178Z,21.67
2023-02-01T20:02:52.946Z,23.63
2023-02-01T20:05:58.646Z,19.52
2023-02-01T20:09:00.302Z,20.70
2023-02-01T20:12:01.778Z,18.27
2023-02-01T20:15:04.770Z,22.92
2023-02-01T20:18:06.213Z,17.48
2023-02-01T20:21:07.680Z,22.98
2023-02-01T20:24:12.755Z,21.80
2023-02-01T20:27:15.039Z,21.70
2023-02-01T20:30:16.577Z,28.92
2023-02-01T20:33:18.004Z,35.83
2023-02-01T20:36:19.452Z,28.50
2023-02-01T20:39:20.901Z,42.08
2023-02-01T20:42:22.372Z,24.63
2023-02-01T20:45:24.208Z,25.65
2023-02-01T20:48:26.170Z,20.70
2023-02-01T20:51:27.648Z,19.50
2023-02-01T20:54:29.060Z,18.98
2023-02-01T20:57:30.493Z,19.98
2023-02-01T21:00:31.937Z,17.63
2023-02-01T21:03:34.292Z,17.67
2023-02-01T21:06:35.745Z,20.55
2023-02-01T21:09:37.172Z,18.27
2023-02-01T21:12:38.808Z,21.80
2023-02-01T21:15:43.800Z,25.50
2023-02-01T21:18:49.717Z,21.58
2023-02-01T21:21:51.398Z,19.58
2023-02-01T21:24:52.823Z,25.23
2023-02-01T21:27:54.311Z,21.63
2023-02-01T21:30:55.907Z,19.05
2023-02-01T21:33:57.385Z,25.85
2023-02-01T21:36:58.886Z,21.75
2023-02-01T21:40:00.966Z,15.35
2023-02-01T21:43:02.410Z,19.23
2023-02-01T21:46:03.905Z,19.80
2023-02-01T21:49:06.297Z,19.95
2023-02-01T21:55:11.382Z,17.92
2023-02-01T21:58:12.814Z,25.13
2023-02-01T22:01:14.293Z,23.15
2023-02-01T22:04:15.744Z,27.05
2023-02-01T22:07:17.185Z,22.70
2023-02-01T22:10:18.734Z,25.15
2023-02-01T22:13:20.160Z,24.17
2023-02-01T22:16:21.889Z,26.38
2023-02-01T22:19:23.354Z,18.42
2023-02-01T22:22:24.784Z,19.48
2023-02-01T22:25:26.658Z,20.75
2023-02-01T22:28:32.095Z,19.38
2023-02-01T22:31:35.368Z,17.58
2023-02-01T22:34:36.853Z,26.05
2023-02-01T22:37:38.332Z,16.55
2023-02-01T22:40:39.763Z,18.20
2023-02-01T22:43:41.689Z,21.35
2023-02-01T22:46:43.129Z,23.33
2023-02-01T22:49:44.603Z,20.05
2023-02-01T22:52:46.236Z,20.85
2023-02-01T22:55:47.688Z,18.45
2023-02-01T22:58:49.134Z,23.10
2023-02-01T23:01:50.590Z,22.30
2023-02-01T23:04:52.030Z,25.98
2023-02-01T23:07:53.498Z,28.25
2023-02-01T23:10:59.494Z,18.90
2023-02-01T23:14:00.921Z,20.35
2023-02-01T23:17:02.340Z,21.15
2023-02-01T23:20:06.022Z,20.60
2023-02-01T23:23:07.490Z,28.10
2023-02-01T23:26:08.967Z,20.50
2023-02-01T23:29:17.046Z,15.30
2023-02-01T23:32:19.329Z,15.48
2023-02-01T23:35:20.782Z,12.75
2023-02-01T23:38:22.257Z,14.57
2023-02-01T23:41:24.606Z,9.52
2023-02-01T23:44:26.071Z,12.85
2023-02-01T23:47:27.491Z,15.13
2023-02-01T23:50:28.977Z,12.30
2023-02-01T23:53:30.384Z,15.35
2023-02-01T23:56:37.663Z,13.93
2023-02-01T23:59:39.107Z,10.50
